Glencoe, Minnesota
Current Conditions -  °F | °C
As of 4:54 AM on Thursday 23 Oct 2014 (Local Time) from KGYL Reporting Station
Haze Haze  
Wind Chill: 55°   Ceiling: 3800
Heat Index: 55°   Visibility: 5mi
Dew Point: 55°   Wind: 5mph
Humidity: 99%   Direction: 200°SSW
Pressure: 29.97"   Gusts: NA
Location:  44.77°N, 94.15°W
Report Text: KGYL 230954Z AUTO 20004KT 5SM BR SCT010 BKN038 OVC047 13/13 A2997 RMK AO2 T01260125
Loading
Personal Weather Stations






























Interactive Weather Map
Tropical Storm Tracking
New forecast layout! Learn more

10-Day Weather Forecast

Advertisements
Track Severe Weather on mobile